Airfield :
LOGIN :

Register | Disclaimer

   EN    FR    IT 

 










Legend :    VFR   Marginal VFR   IFR   Intensive IFR   Very Intensive IFR
Visi :
Ceiling :
>= 8 km
>= 3000ft
5 to 8 km
1000 to 3000 ft
1500m to 5 km
500 to 1000 ft
800 to 1500m
200 to 500 ft
< 800m
< 200 ft
Symbols :   Thunderstorms  Fog  Heavy snow  Heavy precipitations  Wind > 20 kt
SIGMETs :     Misc.  Thunderstorms  Icing  Turbulence  Mountain Waves  Volcanic Ashes






- Airport Elevation : 13 ft
- IATA code : CAG


LIEE - Cagliari Elmas

CURRENT METAR :
  • 072250Z 34004KT CAVOK 11/08 Q1026

EXPIRED METARs :
  • 072220Z 34003KT CAVOK 11/08 Q1027
  • 072150Z 33004KT CAVOK 11/08 Q1026
  • 072120Z 02002KT CAVOK 11/08 Q1027
  • 072050Z 34004KT CAVOK 13/08 Q1026
  • 072020Z 19003KT 150V230 CAVOK 14/07 Q1027

TAF TAF LIEE
Valid from the 07 at 18:00 until the 08 at 18:00 UTC


071700Z 0718/0818 VRB05KT CAVOK



MET'MAP, your aeronautical weather chart ! - Copyright ORBIFLY December 2007 - Disclaimer

ORBIFLY MET'MAP TEAM :

Programming & Development : Alexandra Zaïnal
Concept & original design : Baudouin d'Aumeries
Assistance for programming : Marc-Olivier Méhu
Technical & hardware support : Manuel Goepfert

Contact : metmap@orbifly.com




SOURCES & CREDITS :

   NOAA